Check out our new PWSWeather beta!
PWSweather.com
Personal Weather Stations
Station Observations
KNEOMA130
Stonybrook South, Omaha, NE 68138

Stonybrook SouthOmaha, NE 68138

Lat: 41.190485, Lon: -96.13102900000001

Elevation: 1142

Station Type: Davis VP2

http://chappelleweather.com

Latest ConditionsUpdated 4:33:07 AM CST Wednesday, Feb 26, 2020
Currently Today's Max Today's Min Today's Average
Temperature 24.7°F-4.1°C 28.5°F-1.9°C 24.7°F-4.1°C 27.1°F-2.7°C
Dew Point 17.9°F-7.8°C 22.7°F-5.2°C 17.9°F-7.8°C 20.9°F-6.2°C
Winds 8.0 mph NW12.9 kmh NW 16.0 mph -25.7 kmh - - 5.4 mph 8.7 kmh
Wind Gusts 15.0 mph24.1 kmh 20.0 mph32.2 kmh - -
Humidity 75% 79% 75% 77%
Pressure 30.36 in1028.1 mb 30.37 in1028.4 mb 30.36 in1028.1 mb -
Hour Temp Dew Point Humidity Winds Wind Gusts Pressure Precip Precip Rate Daily Precip Total
04:33 AM 24.7°F-4.1°C 17.9°F-7.8°C 75% 8.0 mph NW12.9 kmh NW 15.0 mph24.1 kmh 30.36 in1028.1 mb 0.00 in0.0 mm 0.00 in0.0 mm 0.00 in0.0 mm
04:32 AM 24.7°F-4.1°C 17.9°F-7.8°C 75% 5.0 mph NNW8.0 kmh NNW 15.0 mph24.1 kmh 30.36 in1028.1 mb 0.00 in0.0 mm 0.00 in0.0 mm 0.00 in0.0 mm
04:31 AM 24.7°F-4.1°C 17.9°F-7.8°C 75% 4.0 mph NW6.4 kmh NW 15.0 mph24.1 kmh 30.36 in1028.1 mb 0.00 in0.0 mm 0.00 in0.0 mm 0.00 in0.0 mm
04:30 AM 24.8°F-4.0°C 18.0°F-7.8°C 75% 3.0 mph N4.8 kmh N 15.0 mph24.1 kmh 30.36 in1028.1 mb 0.00 in0.0 mm 0.00 in0.0 mm 0.00 in0.0 mm
04:29 AM 24.8°F-4.0°C 18.0°F-7.8°C 75% 4.0 mph NNW6.4 kmh NNW 15.0 mph24.1 kmh 30.36 in1028.1 mb 0.00 in0.0 mm 0.00 in0.0 mm 0.00 in0.0 mm
04:28 AM 24.9°F-3.9°C 18.1°F-7.7°C 75% 5.0 mph NW8.0 kmh NW 15.0 mph24.1 kmh 30.36 in1028.1 mb 0.00 in0.0 mm 0.00 in0.0 mm 0.00 in0.0 mm
04:27 AM 24.9°F-3.9°C 18.4°F-7.6°C 76% 5.0 mph NW8.0 kmh NW 15.0 mph24.1 kmh 30.36 in1028.1 mb 0.00 in0.0 mm 0.00 in0.0 mm 0.00 in0.0 mm
04:26 AM 24.9°F-3.9°C 18.4°F-7.6°C 76% 15.0 mph NW24.1 kmh NW 15.0 mph24.1 kmh 30.36 in1028.1 mb 0.00 in0.0 mm 0.00 in0.0 mm 0.00 in0.0 mm
04:25 AM 24.9°F-3.9°C 18.4°F-7.6°C 76% 4.0 mph N6.4 kmh N 12.0 mph19.3 kmh 30.36 in1028.1 mb 0.00 in0.0 mm 0.00 in0.0 mm 0.00 in0.0 mm
04:24 AM 24.9°F-3.9°C 18.4°F-7.6°C 76% 2.0 mph NNW3.2 kmh NNW 12.0 mph19.3 kmh 30.36 in1028.1 mb 0.00 in0.0 mm 0.00 in0.0 mm 0.00 in0.0 mm
04:23 AM 25.0°F-3.9°C 18.5°F-7.5°C 76% 3.0 mph N4.8 kmh N 12.0 mph19.3 kmh 30.36 in1028.1 mb 0.00 in0.0 mm 0.00 in0.0 mm 0.00 in0.0 mm
04:22 AM 25.0°F-3.9°C 18.5°F-7.5°C 76% 5.0 mph NW8.0 kmh NW 12.0 mph19.3 kmh 30.36 in1028.1 mb 0.00 in0.0 mm 0.00 in0.0 mm 0.00 in0.0 mm
04:21 AM 25.1°F-3.8°C 18.6°F-7.4°C 76% 4.0 mph NW6.4 kmh NW 12.0 mph19.3 kmh 30.36 in1028.1 mb 0.00 in0.0 mm 0.00 in0.0 mm 0.00 in0.0 mm
04:20 AM 25.1°F-3.8°C 18.6°F-7.4°C 76% 1.0 mph NW1.6 kmh NW 12.0 mph19.3 kmh 30.37 in1028.4 mb 0.00 in0.0 mm 0.00 in0.0 mm 0.00 in0.0 mm
04:19 AM 25.1°F-3.8°C 18.6°F-7.4°C 76% 2.0 mph N3.2 kmh N 12.0 mph19.3 kmh 30.37 in1028.4 mb 0.00 in0.0 mm 0.00 in0.0 mm 0.00 in0.0 mm
04:18 AM 25.1°F-3.8°C 18.6°F-7.4°C 76% 5.0 mph NW8.0 kmh NW 15.0 mph24.1 kmh 30.37 in1028.4 mb 0.00 in0.0 mm 0.00 in0.0 mm 0.00 in0.0 mm
04:17 AM 25.1°F-3.8°C 18.6°F-7.4°C 76% 6.0 mph N9.7 kmh N 15.0 mph24.1 kmh 30.37 in1028.4 mb 0.00 in0.0 mm 0.00 in0.0 mm 0.00 in0.0 mm
04:16 AM 25.1°F-3.8°C 18.6°F-7.4°C 76% 2.0 mph NW3.2 kmh NW 15.0 mph24.1 kmh 30.37 in1028.4 mb 0.00 in0.0 mm 0.00 in0.0 mm 0.00 in0.0 mm
04:15 AM 25.2°F-3.8°C 18.7°F-7.4°C 76% 2.0 mph NW3.2 kmh NW 15.0 mph24.1 kmh 30.37 in1028.4 mb 0.00 in0.0 mm 0.00 in0.0 mm 0.00 in0.0 mm
04:14 AM 25.2°F-3.8°C 18.7°F-7.4°C 76% 3.0 mph N4.8 kmh N 15.0 mph24.1 kmh 30.37 in1028.4 mb 0.00 in0.0 mm 0.00 in0.0 mm 0.00 in0.0 mm
04:13 AM 25.3°F-3.7°C 18.8°F-7.3°C 76% 3.0 mph NNW4.8 kmh NNW 15.0 mph24.1 kmh 30.37 in1028.4 mb 0.00 in0.0 mm 0.00 in0.0 mm 0.00 in0.0 mm
04:12 AM 25.3°F-3.7°C 18.8°F-7.3°C 76% 2.0 mph NW3.2 kmh NW 15.0 mph24.1 kmh 30.37 in1028.4 mb 0.00 in0.0 mm 0.00 in0.0 mm 0.00 in0.0 mm
04:11 AM 25.3°F-3.7°C 18.8°F-7.3°C 76% 2.0 mph NNW3.2 kmh NNW 15.0 mph24.1 kmh 30.37 in1028.4 mb 0.00 in0.0 mm 0.00 in0.0 mm 0.00 in0.0 mm
04:10 AM 25.4°F-3.7°C 18.9°F-7.3°C 76% 8.0 mph NW12.9 kmh NW 15.0 mph24.1 kmh 30.37 in1028.4 mb 0.00 in0.0 mm 0.00 in0.0 mm 0.00 in0.0 mm
04:09 AM 25.4°F-3.7°C 18.9°F-7.3°C 76% 8.0 mph N12.9 kmh N 15.0 mph24.1 kmh 30.37 in1028.4 mb 0.00 in0.0 mm 0.00 in0.0 mm 0.00 in0.0 mm
04:08 AM 25.4°F-3.7°C 18.9°F-7.3°C 76% 8.0 mph N12.9 kmh N 12.0 mph19.3 kmh 30.37 in1028.4 mb 0.00 in0.0 mm 0.00 in0.0 mm 0.00 in0.0 mm
04:07 AM 25.4°F-3.7°C 18.9°F-7.3°C 76% 4.0 mph NW6.4 kmh NW 12.0 mph19.3 kmh 30.37 in1028.4 mb 0.00 in0.0 mm 0.00 in0.0 mm 0.00 in0.0 mm
04:06 AM 25.4°F-3.7°C 18.9°F-7.3°C 76% 8.0 mph W12.9 kmh W 11.0 mph17.7 kmh 30.37 in1028.4 mb 0.00 in0.0 mm 0.00 in0.0 mm 0.00 in0.0 mm
04:05 AM 25.4°F-3.7°C 18.9°F-7.3°C 76% 3.0 mph NNW4.8 kmh NNW 11.0 mph17.7 kmh 30.37 in1028.4 mb 0.00 in0.0 mm 0.00 in0.0 mm 0.00 in0.0 mm
04:04 AM 25.5°F-3.6°C 19.0°F-7.2°C 76% 3.0 mph NW4.8 kmh NW 11.0 mph17.7 kmh 30.37 in1028.4 mb 0.00 in0.0 mm 0.00 in0.0 mm 0.00 in0.0 mm
04:03 AM 25.5°F-3.6°C 19.0°F-7.2°C 76% 7.0 mph WSW11.3 kmh WSW 14.0 mph22.5 kmh 30.37 in1028.4 mb 0.00 in0.0 mm 0.00 in0.0 mm 0.00 in0.0 mm
04:02 AM 25.5°F-3.6°C 19.3°F-7.1°C 77% 4.0 mph NW6.4 kmh NW 16.0 mph25.7 kmh 30.37 in1028.4 mb 0.00 in0.0 mm 0.00 in0.0 mm 0.00 in0.0 mm
04:01 AM 25.5°F-3.6°C 19.3°F-7.1°C 77% 3.0 mph N4.8 kmh N 16.0 mph25.7 kmh 30.37 in1028.4 mb 0.00 in0.0 mm 0.00 in0.0 mm 0.00 in0.0 mm
04:00 AM 25.6°F-3.6°C 19.4°F-7.0°C 77% 4.0 mph N6.4 kmh N 16.0 mph25.7 kmh 30.36 in1028.1 mb 0.00 in0.0 mm 0.00 in0.0 mm 0.00 in0.0 mm
03:59 AM 25.6°F-3.6°C 19.4°F-7.0°C 77% 6.0 mph N9.7 kmh N 16.0 mph25.7 kmh 30.36 in1028.1 mb 0.00 in0.0 mm 0.00 in0.0 mm 0.00 in0.0 mm
03:58 AM 25.6°F-3.6°C 19.4°F-7.0°C 77% 6.0 mph N9.7 kmh N 16.0 mph25.7 kmh 30.36 in1028.1 mb 0.00 in0.0 mm 0.00 in0.0 mm 0.00 in0.0 mm
03:57 AM 25.6°F-3.6°C 19.4°F-7.0°C 77% 6.0 mph W9.7 kmh W 16.0 mph25.7 kmh 30.36 in1028.1 mb 0.00 in0.0 mm 0.00 in0.0 mm 0.00 in0.0 mm
03:56 AM 25.6°F-3.6°C 19.4°F-7.0°C 77% 4.0 mph NNW6.4 kmh NNW 16.0 mph25.7 kmh 30.36 in1028.1 mb 0.00 in0.0 mm 0.00 in0.0 mm 0.00 in0.0 mm
03:55 AM 25.7°F-3.5°C 19.5°F-6.9°C 77% 8.0 mph NW12.9 kmh NW 16.0 mph25.7 kmh 30.36 in1028.1 mb 0.00 in0.0 mm 0.00 in0.0 mm 0.00 in0.0 mm
03:54 AM 25.6°F-3.6°C 19.4°F-7.0°C 77% 8.0 mph NW12.9 kmh NW 16.0 mph25.7 kmh 30.36 in1028.1 mb 0.00 in0.0 mm 0.00 in0.0 mm 0.00 in0.0 mm
03:53 AM 25.6°F-3.6°C 19.4°F-7.0°C 77% 10.0 mph NW16.1 kmh NW 16.0 mph25.7 kmh 30.36 in1028.1 mb 0.00 in0.0 mm 0.00 in0.0 mm 0.00 in0.0 mm
03:52 AM 25.6°F-3.6°C 19.4°F-7.0°C 77% 2.0 mph NW3.2 kmh NW 13.0 mph20.9 kmh 30.36 in1028.1 mb 0.00 in0.0 mm 0.00 in0.0 mm 0.00 in0.0 mm
03:51 AM 25.6°F-3.6°C 19.1°F-7.2°C 76% 3.0 mph WNW4.8 kmh WNW 13.0 mph20.9 kmh 30.36 in1028.1 mb 0.00 in0.0 mm 0.00 in0.0 mm 0.00 in0.0 mm
03:50 AM 25.6°F-3.6°C 19.1°F-7.2°C 76% 3.0 mph N4.8 kmh N 13.0 mph20.9 kmh 30.36 in1028.1 mb 0.00 in0.0 mm 0.00 in0.0 mm 0.00 in0.0 mm
03:49 AM 25.6°F-3.6°C 19.1°F-7.2°C 76% 5.0 mph NNE8.0 kmh NNE 14.0 mph22.5 kmh 30.36 in1028.1 mb 0.00 in0.0 mm 0.00 in0.0 mm 0.00 in0.0 mm
03:48 AM 25.7°F-3.5°C 19.2°F-7.1°C 76% 4.0 mph WNW6.4 kmh WNW 14.0 mph22.5 kmh 30.36 in1028.1 mb 0.00 in0.0 mm 0.00 in0.0 mm 0.00 in0.0 mm
03:47 AM 25.7°F-3.5°C 19.5°F-6.9°C 77% 8.0 mph NNW12.9 kmh NNW 14.0 mph22.5 kmh 30.36 in1028.1 mb 0.00 in0.0 mm 0.00 in0.0 mm 0.00 in0.0 mm
03:46 AM 25.7°F-3.5°C 19.5°F-6.9°C 77% 6.0 mph NW9.7 kmh NW 14.0 mph22.5 kmh 30.36 in1028.1 mb 0.00 in0.0 mm 0.00 in0.0 mm 0.00 in0.0 mm
03:45 AM 25.7°F-3.5°C 19.5°F-6.9°C 77% 8.0 mph N12.9 kmh N 14.0 mph22.5 kmh 30.36 in1028.1 mb 0.00 in0.0 mm 0.00 in0.0 mm 0.00 in0.0 mm
03:44 AM 25.7°F-3.5°C 19.5°F-6.9°C 77% 6.0 mph NW9.7 kmh NW 14.0 mph22.5 kmh 30.36 in1028.1 mb 0.00 in0.0 mm 0.00 in0.0 mm 0.00 in0.0 mm
03:43 AM 25.8°F-3.4°C 19.6°F-6.9°C 77% 6.0 mph N9.7 kmh N 14.0 mph22.5 kmh 30.36 in1028.1 mb 0.00 in0.0 mm 0.00 in0.0 mm 0.00 in0.0 mm
03:42 AM 25.8°F-3.4°C 19.6°F-6.9°C 77% 2.0 mph N3.2 kmh N 14.0 mph22.5 kmh 30.36 in1028.1 mb 0.00 in0.0 mm 0.00 in0.0 mm 0.00 in0.0 mm
03:41 AM 25.8°F-3.4°C 19.6°F-6.9°C 77% 4.0 mph NW6.4 kmh NW 14.0 mph22.5 kmh 30.36 in1028.1 mb 0.00 in0.0 mm 0.00 in0.0 mm 0.00 in0.0 mm
03:40 AM 25.8°F-3.4°C 19.6°F-6.9°C 77% 6.0 mph NW9.7 kmh NW 14.0 mph22.5 kmh 30.36 in1028.1 mb 0.00 in0.0 mm 0.00 in0.0 mm 0.00 in0.0 mm
03:39 AM 25.8°F-3.4°C 19.6°F-6.9°C 77% 13.0 mph WNW20.9 kmh WNW 14.0 mph22.5 kmh 30.36 in1028.1 mb 0.00 in0.0 mm 0.00 in0.0 mm 0.00 in0.0 mm
03:38 AM 25.8°F-3.4°C 19.6°F-6.9°C 77% 2.0 mph NNW3.2 kmh NNW 14.0 mph22.5 kmh 30.36 in1028.1 mb 0.00 in0.0 mm 0.00 in0.0 mm 0.00 in0.0 mm
03:37 AM 25.9°F-3.4°C 19.7°F-6.8°C 77% 8.0 mph WNW12.9 kmh WNW 14.0 mph22.5 kmh 30.36 in1028.1 mb 0.00 in0.0 mm 0.00 in0.0 mm 0.00 in0.0 mm
03:36 AM 25.9°F-3.4°C 19.7°F-6.8°C 77% 5.0 mph NW8.0 kmh NW 14.0 mph22.5 kmh 30.36 in1028.1 mb 0.00 in0.0 mm 0.00 in0.0 mm 0.00 in0.0 mm
03:35 AM 25.9°F-3.4°C 19.7°F-6.8°C 77% 7.0 mph NW11.3 kmh NW 14.0 mph22.5 kmh 30.36 in1028.1 mb 0.00 in0.0 mm 0.00 in0.0 mm 0.00 in0.0 mm
03:34 AM 26.0°F-3.3°C 19.8°F-6.8°C 77% 7.0 mph NW11.3 kmh NW 15.0 mph24.1 kmh 30.36 in1028.1 mb 0.00 in0.0 mm 0.00 in0.0 mm 0.00 in0.0 mm
03:33 AM 26.0°F-3.3°C 19.8°F-6.8°C 77% 3.0 mph N4.8 kmh N 15.0 mph24.1 kmh 30.36 in1028.1 mb 0.00 in0.0 mm 0.00 in0.0 mm 0.00 in0.0 mm
03:32 AM 26.0°F-3.3°C 19.8°F-6.8°C 77% 4.0 mph NW6.4 kmh NW 15.0 mph24.1 kmh 30.36 in1028.1 mb 0.00 in0.0 mm 0.00 in0.0 mm 0.00 in0.0 mm
03:31 AM 26.0°F-3.3°C 19.8°F-6.8°C 77% 4.0 mph N6.4 kmh N 15.0 mph24.1 kmh 30.36 in1028.1 mb 0.00 in0.0 mm 0.00 in0.0 mm 0.00 in0.0 mm
03:30 AM 26.0°F-3.3°C 20.1°F-6.6°C 78% 2.0 mph NNW3.2 kmh NNW 15.0 mph24.1 kmh 30.36 in1028.1 mb 0.00 in0.0 mm 0.00 in0.0 mm 0.00 in0.0 mm
03:29 AM 26.0°F-3.3°C 20.1°F-6.6°C 78% 6.0 mph NW9.7 kmh NW 15.0 mph24.1 kmh 30.36 in1028.1 mb 0.00 in0.0 mm 0.00 in0.0 mm 0.00 in0.0 mm
03:28 AM 26.1°F-3.3°C 20.2°F-6.6°C 78% 6.0 mph NNE9.7 kmh NNE 15.0 mph24.1 kmh 30.36 in1028.1 mb 0.00 in0.0 mm 0.00 in0.0 mm 0.00 in0.0 mm
03:27 AM 26.1°F-3.3°C 20.2°F-6.6°C 78% 3.0 mph W4.8 kmh W 15.0 mph24.1 kmh 30.36 in1028.1 mb 0.00 in0.0 mm 0.00 in0.0 mm 0.00 in0.0 mm
03:26 AM 26.1°F-3.3°C 20.2°F-6.6°C 78% 3.0 mph N4.8 kmh N 15.0 mph24.1 kmh 30.36 in1028.1 mb 0.00 in0.0 mm 0.00 in0.0 mm 0.00 in0.0 mm
03:25 AM 26.1°F-3.3°C 20.2°F-6.6°C 78% 10.0 mph N16.1 kmh N 15.0 mph24.1 kmh 30.36 in1028.1 mb 0.00 in0.0 mm 0.00 in0.0 mm 0.00 in0.0 mm
03:24 AM 26.2°F-3.2°C 20.3°F-6.5°C 78% 9.0 mph NW14.5 kmh NW 15.0 mph24.1 kmh 30.36 in1028.1 mb 0.00 in0.0 mm 0.00 in0.0 mm 0.00 in0.0 mm
03:23 AM 26.2°F-3.2°C 20.3°F-6.5°C 78% 8.0 mph NW12.9 kmh NW 15.0 mph24.1 kmh 30.36 in1028.1 mb 0.00 in0.0 mm 0.00 in0.0 mm 0.00 in0.0 mm
03:22 AM 26.2°F-3.2°C 20.3°F-6.5°C 78% 8.0 mph NW12.9 kmh NW 16.0 mph25.7 kmh 30.36 in1028.1 mb 0.00 in0.0 mm 0.00 in0.0 mm 0.00 in0.0 mm
03:21 AM 26.2°F-3.2°C 20.3°F-6.5°C 78% 8.0 mph NW12.9 kmh NW 16.0 mph25.7 kmh 30.36 in1028.1 mb 0.00 in0.0 mm 0.00 in0.0 mm 0.00 in0.0 mm
03:20 AM 26.2°F-3.2°C 20.3°F-6.5°C 78% 4.0 mph NW6.4 kmh NW 16.0 mph25.7 kmh 30.36 in1028.1 mb 0.00 in0.0 mm 0.00 in0.0 mm 0.00 in0.0 mm
03:19 AM 26.2°F-3.2°C 20.3°F-6.5°C 78% 3.0 mph NNW4.8 kmh NNW 16.0 mph25.7 kmh 30.36 in1028.1 mb 0.00 in0.0 mm 0.00 in0.0 mm 0.00 in0.0 mm
03:18 AM 26.3°F-3.2°C 20.4°F-6.4°C 78% 4.0 mph NNW6.4 kmh NNW 16.0 mph25.7 kmh 30.36 in1028.1 mb 0.00 in0.0 mm 0.00 in0.0 mm 0.00 in0.0 mm
03:17 AM 26.3°F-3.2°C 20.4°F-6.4°C 78% 5.0 mph NW8.0 kmh NW 16.0 mph25.7 kmh 30.36 in1028.1 mb 0.00 in0.0 mm 0.00 in0.0 mm 0.00 in0.0 mm
03:16 AM 26.3°F-3.2°C 20.4°F-6.4°C 78% 8.0 mph WSW12.9 kmh WSW 18.0 mph29.0 kmh 30.36 in1028.1 mb 0.00 in0.0 mm 0.00 in0.0 mm 0.00 in0.0 mm
03:15 AM 26.4°F-3.1°C 20.5°F-6.4°C 78% 3.0 mph NW4.8 kmh NW 18.0 mph29.0 kmh 30.36 in1028.1 mb 0.00 in0.0 mm 0.00 in0.0 mm 0.00 in0.0 mm
03:14 AM 26.5°F-3.1°C 20.6°F-6.3°C 78% 4.0 mph NW6.4 kmh NW 18.0 mph29.0 kmh 30.36 in1028.1 mb 0.00 in0.0 mm 0.00 in0.0 mm 0.00 in0.0 mm
03:13 AM 26.5°F-3.1°C 20.6°F-6.3°C 78% 5.0 mph NW8.0 kmh NW 18.0 mph29.0 kmh 30.36 in1028.1 mb 0.00 in0.0 mm 0.00 in0.0 mm 0.00 in0.0 mm
03:12 AM 26.6°F-3.0°C 20.7°F-6.3°C 78% 5.0 mph NW8.0 kmh NW 18.0 mph29.0 kmh 30.36 in1028.1 mb 0.00 in0.0 mm 0.00 in0.0 mm 0.00 in0.0 mm
03:11 AM 26.6°F-3.0°C 20.7°F-6.3°C 78% 8.0 mph NW12.9 kmh NW 18.0 mph29.0 kmh 30.36 in1028.1 mb 0.00 in0.0 mm 0.00 in0.0 mm 0.00 in0.0 mm
03:10 AM 26.6°F-3.0°C 20.7°F-6.3°C 78% 8.0 mph WNW12.9 kmh WNW 18.0 mph29.0 kmh 30.36 in1028.1 mb 0.00 in0.0 mm 0.00 in0.0 mm 0.00 in0.0 mm
03:09 AM 26.7°F-2.9°C 20.8°F-6.2°C 78% 4.0 mph NNW6.4 kmh NNW 18.0 mph29.0 kmh 30.36 in1028.1 mb 0.00 in0.0 mm 0.00 in0.0 mm 0.00 in0.0 mm
03:08 AM 26.7°F-2.9°C 20.8°F-6.2°C 78% 8.0 mph NW12.9 kmh NW 18.0 mph29.0 kmh 30.36 in1028.1 mb 0.00 in0.0 mm 0.00 in0.0 mm 0.00 in0.0 mm
03:07 AM 26.8°F-2.9°C 20.6°F-6.3°C 77% 16.0 mph NNW25.7 kmh NNW 18.0 mph29.0 kmh 30.36 in1028.1 mb 0.00 in0.0 mm 0.00 in0.0 mm 0.00 in0.0 mm
03:06 AM 26.8°F-2.9°C 20.9°F-6.2°C 78% 2.0 mph NNW3.2 kmh NNW 17.0 mph27.4 kmh 30.36 in1028.1 mb 0.00 in0.0 mm 0.00 in0.0 mm 0.00 in0.0 mm
03:05 AM 26.9°F-2.8°C 21.0°F-6.1°C 78% 3.0 mph NW4.8 kmh NW 14.0 mph22.5 kmh 30.36 in1028.1 mb 0.00 in0.0 mm 0.00 in0.0 mm 0.00 in0.0 mm
03:04 AM 27.0°F-2.8°C 21.1°F-6.1°C 78% 4.0 mph N6.4 kmh N 14.0 mph22.5 kmh 30.36 in1028.1 mb 0.00 in0.0 mm 0.00 in0.0 mm 0.00 in0.0 mm
03:03 AM 27.0°F-2.8°C 21.1°F-6.1°C 78% 8.0 mph NW12.9 kmh NW 15.0 mph24.1 kmh 30.36 in1028.1 mb 0.00 in0.0 mm 0.00 in0.0 mm 0.00 in0.0 mm
03:02 AM 27.0°F-2.8°C 21.1°F-6.1°C 78% 3.0 mph NNW4.8 kmh NNW 15.0 mph24.1 kmh 30.36 in1028.1 mb 0.00 in0.0 mm 0.00 in0.0 mm 0.00 in0.0 mm
03:01 AM 27.1°F-2.7°C 20.8°F-6.2°C 77% 7.0 mph WNW11.3 kmh WNW 15.0 mph24.1 kmh 30.36 in1028.1 mb 0.00 in0.0 mm 0.00 in0.0 mm 0.00 in0.0 mm
03:00 AM 27.1°F-2.7°C 20.8°F-6.2°C 77% 4.0 mph W6.4 kmh W 15.0 mph24.1 kmh 30.36 in1028.1 mb 0.00 in0.0 mm 0.00 in0.0 mm 0.00 in0.0 mm
02:59 AM 27.1°F-2.7°C 20.8°F-6.2°C 77% 3.0 mph NW4.8 kmh NW 15.0 mph24.1 kmh 30.36 in1028.1 mb 0.00 in0.0 mm 0.00 in0.0 mm 0.00 in0.0 mm
02:58 AM 27.1°F-2.7°C 20.8°F-6.2°C 77% 3.0 mph NNW4.8 kmh NNW 15.0 mph24.1 kmh 30.36 in1028.1 mb 0.00 in0.0 mm 0.00 in0.0 mm 0.00 in0.0 mm
02:57 AM 27.1°F-2.7°C 20.8°F-6.2°C 77% 7.0 mph NW11.3 kmh NW 15.0 mph24.1 kmh 30.36 in1028.1 mb 0.00 in0.0 mm 0.00 in0.0 mm 0.00 in0.0 mm
02:56 AM 27.0°F-2.8°C 20.7°F-6.3°C 77% 5.0 mph NW8.0 kmh NW 15.0 mph24.1 kmh 30.36 in1028.1 mb 0.00 in0.0 mm 0.00 in0.0 mm 0.00 in0.0 mm
02:55 AM -- -- - - N N -- -- 0.00 in0.0 mm 0.00 in0.0 mm 0.00 in0.0 mm
02:54 AM 27.0°F-2.8°C 20.7°F-6.3°C 77% 2.0 mph N3.2 kmh N 15.0 mph24.1 kmh 30.36 in1028.1 mb 0.00 in0.0 mm 0.00 in0.0 mm 0.00 in0.0 mm
02:53 AM 27.0°F-2.8°C 20.7°F-6.3°C 77% 11.0 mph N17.7 kmh N 12.0 mph19.3 kmh 30.36 in1028.1 mb 0.00 in0.0 mm 0.00 in0.0 mm 0.00 in0.0 mm
02:52 AM 27.0°F-2.8°C 20.4°F-6.4°C 76% 3.0 mph WNW4.8 kmh WNW 16.0 mph25.7 kmh 30.36 in1028.1 mb 0.00 in0.0 mm 0.00 in0.0 mm 0.00 in0.0 mm
02:51 AM 27.1°F-2.7°C 20.5°F-6.4°C 76% 4.0 mph NNE6.4 kmh NNE 16.0 mph25.7 kmh 30.36 in1028.1 mb 0.00 in0.0 mm 0.00 in0.0 mm 0.00 in0.0 mm
02:50 AM 27.1°F-2.7°C 20.5°F-6.4°C 76% 4.0 mph N6.4 kmh N 16.0 mph25.7 kmh 30.36 in1028.1 mb 0.00 in0.0 mm 0.00 in0.0 mm 0.00 in0.0 mm
02:49 AM 27.1°F-2.7°C 20.5°F-6.4°C 76% 2.0 mph NW3.2 kmh NW 16.0 mph25.7 kmh 30.36 in1028.1 mb 0.00 in0.0 mm 0.00 in0.0 mm 0.00 in0.0 mm
02:48 AM 27.1°F-2.7°C 20.5°F-6.4°C 76% 5.0 mph NNW8.0 kmh NNW 16.0 mph25.7 kmh 30.36 in1028.1 mb 0.00 in0.0 mm 0.00 in0.0 mm 0.00 in0.0 mm
02:47 AM 27.1°F-2.7°C 20.5°F-6.4°C 76% 8.0 mph NW12.9 kmh NW 16.0 mph25.7 kmh 30.36 in1028.1 mb 0.00 in0.0 mm 0.00 in0.0 mm 0.00 in0.0 mm
02:46 AM 27.1°F-2.7°C 20.5°F-6.4°C 76% 3.0 mph NNW4.8 kmh NNW 16.0 mph25.7 kmh 30.36 in1028.1 mb 0.00 in0.0 mm 0.00 in0.0 mm 0.00 in0.0 mm
02:45 AM 27.1°F-2.7°C 20.5°F-6.4°C 76% 10.0 mph N16.1 kmh N 16.0 mph25.7 kmh 30.36 in1028.1 mb 0.00 in0.0 mm 0.00 in0.0 mm 0.00 in0.0 mm
02:44 AM 27.1°F-2.7°C 20.5°F-6.4°C 76% 11.0 mph NNW17.7 kmh NNW 16.0 mph25.7 kmh 30.36 in1028.1 mb 0.00 in0.0 mm 0.00 in0.0 mm 0.00 in0.0 mm
02:43 AM 27.2°F-2.7°C 20.6°F-6.3°C 76% 3.0 mph NNW4.8 kmh NNW 16.0 mph25.7 kmh 30.36 in1028.1 mb 0.00 in0.0 mm 0.00 in0.0 mm 0.00 in0.0 mm
02:42 AM 27.2°F-2.7°C 20.9°F-6.2°C 77% 15.0 mph NNW24.1 kmh NNW 15.0 mph24.1 kmh 30.36 in1028.1 mb 0.00 in0.0 mm 0.00 in0.0 mm 0.00 in0.0 mm
02:41 AM 27.2°F-2.7°C 20.6°F-6.3°C 76% 5.0 mph NW8.0 kmh NW 10.0 mph16.1 kmh 30.36 in1028.1 mb 0.00 in0.0 mm 0.00 in0.0 mm 0.00 in0.0 mm
02:40 AM 27.2°F-2.7°C 20.6°F-6.3°C 76% 5.0 mph NNW8.0 kmh NNW 10.0 mph16.1 kmh 30.37 in1028.4 mb 0.00 in0.0 mm 0.00 in0.0 mm 0.00 in0.0 mm
02:39 AM 27.2°F-2.7°C 20.6°F-6.3°C 76% 10.0 mph WNW16.1 kmh WNW 12.0 mph19.3 kmh 30.37 in1028.4 mb 0.00 in0.0 mm 0.00 in0.0 mm 0.00 in0.0 mm
02:38 AM 27.2°F-2.7°C 20.6°F-6.3°C 76% 4.0 mph NNW6.4 kmh NNW 12.0 mph19.3 kmh 30.37 in1028.4 mb 0.00 in0.0 mm 0.00 in0.0 mm 0.00 in0.0 mm
02:37 AM 27.2°F-2.7°C 20.6°F-6.3°C 76% 2.0 mph NNW3.2 kmh NNW 12.0 mph19.3 kmh 30.37 in1028.4 mb 0.00 in0.0 mm 0.00 in0.0 mm 0.00 in0.0 mm
02:36 AM 27.2°F-2.7°C 20.6°F-6.3°C 76% 7.0 mph NW11.3 kmh NW 12.0 mph19.3 kmh 30.37 in1028.4 mb 0.00 in0.0 mm 0.00 in0.0 mm 0.00 in0.0 mm
02:35 AM 27.2°F-2.7°C 20.6°F-6.3°C 76% 5.0 mph NW8.0 kmh NW 12.0 mph19.3 kmh 30.37 in1028.4 mb 0.00 in0.0 mm 0.00 in0.0 mm 0.00 in0.0 mm
02:34 AM 27.2°F-2.7°C 20.6°F-6.3°C 76% 4.0 mph NNW6.4 kmh NNW 12.0 mph19.3 kmh 30.37 in1028.4 mb 0.00 in0.0 mm 0.00 in0.0 mm 0.00 in0.0 mm
02:33 AM 27.2°F-2.7°C 20.6°F-6.3°C 76% 3.0 mph NNW4.8 kmh NNW 12.0 mph19.3 kmh 30.37 in1028.4 mb 0.00 in0.0 mm 0.00 in0.0 mm 0.00 in0.0 mm
02:32 AM 27.2°F-2.7°C 20.6°F-6.3°C 76% 8.0 mph NNE12.9 kmh NNE 12.0 mph19.3 kmh 30.37 in1028.4 mb 0.00 in0.0 mm 0.00 in0.0 mm 0.00 in0.0 mm
02:31 AM 27.2°F-2.7°C 20.6°F-6.3°C 76% 5.0 mph N8.0 kmh N 12.0 mph19.3 kmh 30.37 in1028.4 mb 0.00 in0.0 mm 0.00 in0.0 mm 0.00 in0.0 mm
02:30 AM 27.2°F-2.7°C 20.6°F-6.3°C 76% 3.0 mph NNW4.8 kmh NNW 12.0 mph19.3 kmh 30.37 in1028.4 mb 0.00 in0.0 mm 0.00 in0.0 mm 0.00 in0.0 mm
02:29 AM 27.2°F-2.7°C 20.6°F-6.3°C 76% 9.0 mph NW14.5 kmh NW 11.0 mph17.7 kmh 30.37 in1028.4 mb 0.00 in0.0 mm 0.00 in0.0 mm 0.00 in0.0 mm
02:28 AM 27.3°F-2.6°C 20.7°F-6.3°C 76% 8.0 mph NW12.9 kmh NW 11.0 mph17.7 kmh 30.37 in1028.4 mb 0.00 in0.0 mm 0.00 in0.0 mm 0.00 in0.0 mm
02:27 AM 27.3°F-2.6°C 20.7°F-6.3°C 76% 3.0 mph NNW4.8 kmh NNW 11.0 mph17.7 kmh 30.37 in1028.4 mb 0.00 in0.0 mm 0.00 in0.0 mm 0.00 in0.0 mm
02:26 AM 27.3°F-2.6°C 20.7°F-6.3°C 76% 4.0 mph NNW6.4 kmh NNW 11.0 mph17.7 kmh 30.37 in1028.4 mb 0.00 in0.0 mm 0.00 in0.0 mm 0.00 in0.0 mm
02:25 AM 27.3°F-2.6°C 20.7°F-6.3°C 76% 10.0 mph N16.1 kmh N 10.0 mph16.1 kmh 30.37 in1028.4 mb 0.00 in0.0 mm 0.00 in0.0 mm 0.00 in0.0 mm
02:24 AM 27.3°F-2.6°C 20.7°F-6.3°C 76% 4.0 mph NW6.4 kmh NW 9.0 mph14.5 kmh 30.37 in1028.4 mb 0.00 in0.0 mm 0.00 in0.0 mm 0.00 in0.0 mm
02:23 AM 27.3°F-2.6°C 20.7°F-6.3°C 76% 1.0 mph NNW1.6 kmh NNW 9.0 mph14.5 kmh 30.37 in1028.4 mb 0.00 in0.0 mm 0.00 in0.0 mm 0.00 in0.0 mm
02:22 AM 27.3°F-2.6°C 20.7°F-6.3°C 76% 3.0 mph N4.8 kmh N 11.0 mph17.7 kmh 30.37 in1028.4 mb 0.00 in0.0 mm 0.00 in0.0 mm 0.00 in0.0 mm
02:21 AM 27.4°F-2.6°C 20.8°F-6.2°C 76% 2.0 mph N3.2 kmh N 11.0 mph17.7 kmh 30.37 in1028.4 mb 0.00 in0.0 mm 0.00 in0.0 mm 0.00 in0.0 mm
02:20 AM 27.4°F-2.6°C 20.8°F-6.2°C 76% 5.0 mph NW8.0 kmh NW 11.0 mph17.7 kmh 30.37 in1028.4 mb 0.00 in0.0 mm 0.00 in0.0 mm 0.00 in0.0 mm
02:19 AM 27.3°F-2.6°C 20.7°F-6.3°C 76% 2.0 mph NW3.2 kmh NW 11.0 mph17.7 kmh 30.37 in1028.4 mb 0.00 in0.0 mm 0.00 in0.0 mm 0.00 in0.0 mm
02:18 AM 27.4°F-2.6°C 20.8°F-6.2°C 76% 2.0 mph N3.2 kmh N 12.0 mph19.3 kmh 30.37 in1028.4 mb 0.00 in0.0 mm 0.00 in0.0 mm 0.00 in0.0 mm
02:17 AM 27.3°F-2.6°C 20.7°F-6.3°C 76% Calm Calm 12.0 mph19.3 kmh 30.37 in1028.4 mb 0.00 in0.0 mm 0.00 in0.0 mm 0.00 in0.0 mm
02:16 AM 27.4°F-2.6°C 20.8°F-6.2°C 76% 2.0 mph N3.2 kmh N 12.0 mph19.3 kmh 30.37 in1028.4 mb 0.00 in0.0 mm 0.00 in0.0 mm 0.00 in0.0 mm
02:15 AM 27.4°F-2.6°C 20.8°F-6.2°C 76% 2.0 mph N3.2 kmh N 13.0 mph20.9 kmh 30.37 in1028.4 mb 0.00 in0.0 mm 0.00 in0.0 mm 0.00 in0.0 mm
02:14 AM 27.4°F-2.6°C 20.8°F-6.2°C 76% 4.0 mph NNW6.4 kmh NNW 13.0 mph20.9 kmh 30.37 in1028.4 mb 0.00 in0.0 mm 0.00 in0.0 mm 0.00 in0.0 mm
02:13 AM 27.4°F-2.6°C 20.8°F-6.2°C 76% 8.0 mph NE12.9 kmh NE 13.0 mph20.9 kmh 30.37 in1028.4 mb 0.00 in0.0 mm 0.00 in0.0 mm 0.00 in0.0 mm
02:12 AM 27.4°F-2.6°C 20.8°F-6.2°C 76% 7.0 mph N11.3 kmh N 14.0 mph22.5 kmh 30.37 in1028.4 mb 0.00 in0.0 mm 0.00 in0.0 mm 0.00 in0.0 mm
02:11 AM 27.4°F-2.6°C 20.8°F-6.2°C 76% 4.0 mph N6.4 kmh N 14.0 mph22.5 kmh 30.37 in1028.4 mb 0.00 in0.0 mm 0.00 in0.0 mm 0.00 in0.0 mm
02:10 AM 27.4°F-2.6°C 20.8°F-6.2°C 76% 3.0 mph N4.8 kmh N 14.0 mph22.5 kmh 30.37 in1028.4 mb 0.00 in0.0 mm 0.00 in0.0 mm 0.00 in0.0 mm
02:09 AM 27.4°F-2.6°C 20.8°F-6.2°C 76% 5.0 mph NNW8.0 kmh NNW 14.0 mph22.5 kmh 30.37 in1028.4 mb 0.00 in0.0 mm 0.00 in0.0 mm 0.00 in0.0 mm
02:08 AM 27.4°F-2.6°C 21.1°F-6.1°C 77% 11.0 mph NW17.7 kmh NW 14.0 mph22.5 kmh 30.37 in1028.4 mb 0.00 in0.0 mm 0.00 in0.0 mm 0.00 in0.0 mm
02:07 AM 27.4°F-2.6°C 21.1°F-6.1°C 77% 6.0 mph NW9.7 kmh NW 14.0 mph22.5 kmh 30.37 in1028.4 mb 0.00 in0.0 mm 0.00 in0.0 mm 0.00 in0.0 mm
02:06 AM 27.5°F-2.5°C 21.2°F-6.0°C 77% 5.0 mph NNW8.0 kmh NNW 14.0 mph22.5 kmh 30.37 in1028.4 mb 0.00 in0.0 mm 0.00 in0.0 mm 0.00 in0.0 mm
02:05 AM 27.5°F-2.5°C 21.2°F-6.0°C 77% 8.0 mph NNW12.9 kmh NNW 16.0 mph25.7 kmh 30.37 in1028.4 mb 0.00 in0.0 mm 0.00 in0.0 mm 0.00 in0.0 mm
02:04 AM 27.5°F-2.5°C 21.2°F-6.0°C 77% 5.0 mph NNW8.0 kmh NNW 16.0 mph25.7 kmh 30.37 in1028.4 mb 0.00 in0.0 mm 0.00 in0.0 mm 0.00 in0.0 mm
02:03 AM 27.5°F-2.5°C 21.5°F-5.8°C 78% 5.0 mph NW8.0 kmh NW 16.0 mph25.7 kmh 30.37 in1028.4 mb 0.00 in0.0 mm 0.00 in0.0 mm 0.00 in0.0 mm
02:02 AM 27.5°F-2.5°C 21.5°F-5.8°C 78% 14.0 mph NNW22.5 kmh NNW 16.0 mph25.7 kmh 30.37 in1028.4 mb 0.00 in0.0 mm 0.00 in0.0 mm 0.00 in0.0 mm
02:01 AM 27.5°F-2.5°C 21.2°F-6.0°C 77% 2.0 mph N3.2 kmh N 16.0 mph25.7 kmh 30.37 in1028.4 mb 0.00 in0.0 mm 0.00 in0.0 mm 0.00 in0.0 mm
02:00 AM 27.5°F-2.5°C 21.2°F-6.0°C 77% 4.0 mph W6.4 kmh W 16.0 mph25.7 kmh 30.37 in1028.4 mb 0.00 in0.0 mm 0.00 in0.0 mm 0.00 in0.0 mm
01:59 AM 27.5°F-2.5°C 21.2°F-6.0°C 77% 4.0 mph NNW6.4 kmh NNW 16.0 mph25.7 kmh 30.37 in1028.4 mb 0.00 in0.0 mm 0.00 in0.0 mm 0.00 in0.0 mm
01:58 AM 27.5°F-2.5°C 21.2°F-6.0°C 77% 3.0 mph NNW4.8 kmh NNW 16.0 mph25.7 kmh 30.37 in1028.4 mb 0.00 in0.0 mm 0.00 in0.0 mm 0.00 in0.0 mm
01:57 AM 27.5°F-2.5°C 21.2°F-6.0°C 77% 3.0 mph N4.8 kmh N 16.0 mph25.7 kmh 30.37 in1028.4 mb 0.00 in0.0 mm 0.00 in0.0 mm 0.00 in0.0 mm
01:56 AM 27.5°F-2.5°C 21.5°F-5.8°C 78% 6.0 mph NNW9.7 kmh NNW 16.0 mph25.7 kmh 30.37 in1028.4 mb 0.00 in0.0 mm 0.00 in0.0 mm 0.00 in0.0 mm
01:55 AM 27.5°F-2.5°C 21.2°F-6.0°C 77% 10.0 mph NW16.1 kmh NW 11.0 mph17.7 kmh 30.37 in1028.4 mb 0.00 in0.0 mm 0.00 in0.0 mm 0.00 in0.0 mm
01:54 AM 27.5°F-2.5°C 21.2°F-6.0°C 77% 3.0 mph NW4.8 kmh NW 11.0 mph17.7 kmh 30.37 in1028.4 mb 0.00 in0.0 mm 0.00 in0.0 mm 0.00 in0.0 mm
01:53 AM 27.5°F-2.5°C 21.2°F-6.0°C 77% 4.0 mph N6.4 kmh N 11.0 mph17.7 kmh 30.37 in1028.4 mb 0.00 in0.0 mm 0.00 in0.0 mm 0.00 in0.0 mm
01:52 AM 27.5°F-2.5°C 21.2°F-6.0°C 77% 2.0 mph N3.2 kmh N 17.0 mph27.4 kmh 30.37 in1028.4 mb 0.00 in0.0 mm 0.00 in0.0 mm 0.00 in0.0 mm
01:51 AM 27.5°F-2.5°C 21.2°F-6.0°C 77% 5.0 mph WNW8.0 kmh WNW 17.0 mph27.4 kmh 30.37 in1028.4 mb 0.00 in0.0 mm 0.00 in0.0 mm 0.00 in0.0 mm
01:50 AM 27.5°F-2.5°C 21.5°F-5.8°C 78% 8.0 mph N12.9 kmh N 17.0 mph27.4 kmh 30.37 in1028.4 mb 0.00 in0.0 mm 0.00 in0.0 mm 0.00 in0.0 mm
01:49 AM 27.5°F-2.5°C 21.5°F-5.8°C 78% 2.0 mph NNW3.2 kmh NNW 17.0 mph27.4 kmh 30.37 in1028.4 mb 0.00 in0.0 mm 0.00 in0.0 mm 0.00 in0.0 mm
01:48 AM 27.5°F-2.5°C 21.5°F-5.8°C 78% 3.0 mph N4.8 kmh N 17.0 mph27.4 kmh 30.37 in1028.4 mb 0.00 in0.0 mm 0.00 in0.0 mm 0.00 in0.0 mm
01:47 AM 27.5°F-2.5°C 21.5°F-5.8°C 78% 4.0 mph N6.4 kmh N 17.0 mph27.4 kmh 30.37 in1028.4 mb 0.00 in0.0 mm 0.00 in0.0 mm 0.00 in0.0 mm
01:46 AM 27.5°F-2.5°C 21.2°F-6.0°C 77% 4.0 mph NW6.4 kmh NW 17.0 mph27.4 kmh 30.37 in1028.4 mb 0.00 in0.0 mm 0.00 in0.0 mm 0.00 in0.0 mm
01:45 AM 27.5°F-2.5°C 21.2°F-6.0°C 77% 4.0 mph N6.4 kmh N 17.0 mph27.4 kmh 30.37 in1028.4 mb 0.00 in0.0 mm 0.00 in0.0 mm 0.00 in0.0 mm
01:44 AM 27.5°F-2.5°C 21.2°F-6.0°C 77% 3.0 mph NNW4.8 kmh NNW 17.0 mph27.4 kmh 30.37 in1028.4 mb 0.00 in0.0 mm 0.00 in0.0 mm 0.00 in0.0 mm
01:43 AM 27.5°F-2.5°C 21.2°F-6.0°C 77% 10.0 mph NNW16.1 kmh NNW 17.0 mph27.4 kmh 30.37 in1028.4 mb 0.00 in0.0 mm 0.00 in0.0 mm 0.00 in0.0 mm
01:42 AM 27.5°F-2.5°C 21.2°F-6.0°C 77% 6.0 mph NW9.7 kmh NW 17.0 mph27.4 kmh 30.37 in1028.4 mb 0.00 in0.0 mm 0.00 in0.0 mm 0.00 in0.0 mm
01:41 AM 27.5°F-2.5°C 21.2°F-6.0°C 77% 3.0 mph N4.8 kmh N 17.0 mph27.4 kmh 30.37 in1028.4 mb 0.00 in0.0 mm 0.00 in0.0 mm 0.00 in0.0 mm
01:40 AM 27.5°F-2.5°C 21.2°F-6.0°C 77% 6.0 mph NW9.7 kmh NW 17.0 mph27.4 kmh 30.37 in1028.4 mb 0.00 in0.0 mm 0.00 in0.0 mm 0.00 in0.0 mm
01:39 AM 27.5°F-2.5°C 21.2°F-6.0°C 77% 3.0 mph N4.8 kmh N 17.0 mph27.4 kmh 30.37 in1028.4 mb 0.00 in0.0 mm 0.00 in0.0 mm 0.00 in0.0 mm
01:38 AM 27.5°F-2.5°C 21.2°F-6.0°C 77% 4.0 mph NNW6.4 kmh NNW 17.0 mph27.4 kmh 30.37 in1028.4 mb 0.00 in0.0 mm 0.00 in0.0 mm 0.00 in0.0 mm
01:37 AM 27.5°F-2.5°C 21.2°F-6.0°C 77% 4.0 mph NNW6.4 kmh NNW 17.0 mph27.4 kmh 30.37 in1028.4 mb 0.00 in0.0 mm 0.00 in0.0 mm 0.00 in0.0 mm
01:36 AM 27.5°F-2.5°C 21.2°F-6.0°C 77% 4.0 mph N6.4 kmh N 17.0 mph27.4 kmh 30.37 in1028.4 mb 0.00 in0.0 mm 0.00 in0.0 mm 0.00 in0.0 mm
01:35 AM 27.5°F-2.5°C 21.2°F-6.0°C 77% 11.0 mph NW17.7 kmh NW 13.0 mph20.9 kmh 30.37 in1028.4 mb 0.00 in0.0 mm 0.00 in0.0 mm 0.00 in0.0 mm
01:34 AM 27.5°F-2.5°C 21.2°F-6.0°C 77% 11.0 mph N17.7 kmh N 13.0 mph20.9 kmh 30.37 in1028.4 mb 0.00 in0.0 mm 0.00 in0.0 mm 0.00 in0.0 mm
01:33 AM 27.5°F-2.5°C 21.2°F-6.0°C 77% 3.0 mph N4.8 kmh N 11.0 mph17.7 kmh 30.37 in1028.4 mb 0.00 in0.0 mm 0.00 in0.0 mm 0.00 in0.0 mm
01:32 AM 27.5°F-2.5°C 21.2°F-6.0°C 77% 4.0 mph NW6.4 kmh NW 11.0 mph17.7 kmh 30.37 in1028.4 mb 0.00 in0.0 mm 0.00 in0.0 mm 0.00 in0.0 mm
01:31 AM 27.5°F-2.5°C 20.9°F-6.2°C 76% 2.0 mph WNW3.2 kmh WNW 12.0 mph19.3 kmh 30.37 in1028.4 mb 0.00 in0.0 mm 0.00 in0.0 mm 0.00 in0.0 mm
01:30 AM 27.5°F-2.5°C 20.9°F-6.2°C 76% 5.0 mph NW8.0 kmh NW 12.0 mph19.3 kmh 30.37 in1028.4 mb 0.00 in0.0 mm 0.00 in0.0 mm 0.00 in0.0 mm
01:29 AM 27.5°F-2.5°C 20.9°F-6.2°C 76% 4.0 mph NNW6.4 kmh NNW 12.0 mph19.3 kmh 30.37 in1028.4 mb 0.00 in0.0 mm 0.00 in0.0 mm 0.00 in0.0 mm
01:28 AM 27.5°F-2.5°C 20.9°F-6.2°C 76% 4.0 mph NW6.4 kmh NW 12.0 mph19.3 kmh 30.37 in1028.4 mb 0.00 in0.0 mm 0.00 in0.0 mm 0.00 in0.0 mm
01:27 AM 27.5°F-2.5°C 20.9°F-6.2°C 76% 5.0 mph NW8.0 kmh NW 14.0 mph22.5 kmh 30.37 in1028.4 mb 0.00 in0.0 mm 0.00 in0.0 mm 0.00 in0.0 mm
01:26 AM 27.5°F-2.5°C 20.9°F-6.2°C 76% 11.0 mph NNW17.7 kmh NNW 15.0 mph24.1 kmh 30.37 in1028.4 mb 0.00 in0.0 mm 0.00 in0.0 mm 0.00 in0.0 mm
01:25 AM 27.5°F-2.5°C 20.9°F-6.2°C 76% 4.0 mph NW6.4 kmh NW 17.0 mph27.4 kmh 30.37 in1028.4 mb 0.00 in0.0 mm 0.00 in0.0 mm 0.00 in0.0 mm
01:24 AM 27.6°F-2.4°C 21.0°F-6.1°C 76% 6.0 mph NNW9.7 kmh NNW 17.0 mph27.4 kmh 30.37 in1028.4 mb 0.00 in0.0 mm 0.00 in0.0 mm 0.00 in0.0 mm
01:23 AM 27.6°F-2.4°C 21.0°F-6.1°C 76% 6.0 mph N9.7 kmh N 17.0 mph27.4 kmh 30.37 in1028.4 mb 0.00 in0.0 mm 0.00 in0.0 mm 0.00 in0.0 mm
01:22 AM 27.6°F-2.4°C 21.0°F-6.1°C 76% 9.0 mph NNW14.5 kmh NNW 17.0 mph27.4 kmh 30.37 in1028.4 mb 0.00 in0.0 mm 0.00 in0.0 mm 0.00 in0.0 mm
01:21 AM 27.6°F-2.4°C 21.0°F-6.1°C 76% 3.0 mph NNW4.8 kmh NNW 17.0 mph27.4 kmh 30.37 in1028.4 mb 0.00 in0.0 mm 0.00 in0.0 mm 0.00 in0.0 mm
01:20 AM 27.6°F-2.4°C 21.0°F-6.1°C 76% 4.0 mph NNW6.4 kmh NNW 17.0 mph27.4 kmh 30.37 in1028.4 mb 0.00 in0.0 mm 0.00 in0.0 mm 0.00 in0.0 mm
01:19 AM 27.6°F-2.4°C 21.0°F-6.1°C 76% 3.0 mph NW4.8 kmh NW 20.0 mph32.2 kmh 30.37 in1028.4 mb 0.00 in0.0 mm 0.00 in0.0 mm 0.00 in0.0 mm
01:18 AM 27.6°F-2.4°C 21.0°F-6.1°C 76% 8.0 mph N12.9 kmh N 20.0 mph32.2 kmh 30.37 in1028.4 mb 0.00 in0.0 mm 0.00 in0.0 mm 0.00 in0.0 mm
01:17 AM 27.7°F-2.4°C 21.1°F-6.1°C 76% 12.0 mph WNW19.3 kmh WNW 20.0 mph32.2 kmh 30.37 in1028.4 mb 0.00 in0.0 mm 0.00 in0.0 mm 0.00 in0.0 mm
01:16 AM 27.7°F-2.4°C 21.1°F-6.1°C 76% 11.0 mph NW17.7 kmh NW 20.0 mph32.2 kmh 30.37 in1028.4 mb 0.00 in0.0 mm 0.00 in0.0 mm 0.00 in0.0 mm
01:15 AM 27.7°F-2.4°C 21.1°F-6.1°C 76% 10.0 mph N16.1 kmh N 20.0 mph32.2 kmh 30.37 in1028.4 mb 0.00 in0.0 mm 0.00 in0.0 mm 0.00 in0.0 mm
01:14 AM 27.7°F-2.4°C 21.1°F-6.1°C 76% 6.0 mph N9.7 kmh N 20.0 mph32.2 kmh 30.37 in1028.4 mb 0.00 in0.0 mm 0.00 in0.0 mm 0.00 in0.0 mm
01:13 AM 27.8°F-2.3°C 21.2°F-6.0°C 76% 6.0 mph N9.7 kmh N 20.0 mph32.2 kmh 30.37 in1028.4 mb 0.00 in0.0 mm 0.00 in0.0 mm 0.00 in0.0 mm
01:12 AM 27.8°F-2.3°C 21.2°F-6.0°C 76% 8.0 mph W12.9 kmh W 20.0 mph32.2 kmh 30.37 in1028.4 mb 0.00 in0.0 mm 0.00 in0.0 mm 0.00 in0.0 mm
01:11 AM 27.8°F-2.3°C 21.2°F-6.0°C 76% 5.0 mph N8.0 kmh N 20.0 mph32.2 kmh 30.37 in1028.4 mb 0.00 in0.0 mm 0.00 in0.0 mm 0.00 in0.0 mm
01:10 AM 27.8°F-2.3°C 21.5°F-5.8°C 77% 6.0 mph NW9.7 kmh NW 20.0 mph32.2 kmh 30.37 in1028.4 mb 0.00 in0.0 mm 0.00 in0.0 mm 0.00 in0.0 mm
01:09 AM 27.9°F-2.3°C 21.6°F-5.8°C 77% 2.0 mph W3.2 kmh W 17.0 mph27.4 kmh 30.37 in1028.4 mb 0.00 in0.0 mm 0.00 in0.0 mm 0.00 in0.0 mm
01:08 AM 27.9°F-2.3°C 21.6°F-5.8°C 77% 4.0 mph N6.4 kmh N 17.0 mph27.4 kmh 30.37 in1028.4 mb 0.00 in0.0 mm 0.00 in0.0 mm 0.00 in0.0 mm
01:07 AM 27.9°F-2.3°C 21.6°F-5.8°C 77% 5.0 mph N8.0 kmh N 17.0 mph27.4 kmh 30.37 in1028.4 mb 0.00 in0.0 mm 0.00 in0.0 mm 0.00 in0.0 mm
01:06 AM 27.9°F-2.3°C 21.6°F-5.8°C 77% 6.0 mph N9.7 kmh N 17.0 mph27.4 kmh 30.37 in1028.4 mb 0.00 in0.0 mm 0.00 in0.0 mm 0.00 in0.0 mm
01:05 AM 27.9°F-2.3°C 21.6°F-5.8°C 77% 12.0 mph WNW19.3 kmh WNW 17.0 mph27.4 kmh 30.37 in1028.4 mb 0.00 in0.0 mm 0.00 in0.0 mm 0.00 in0.0 mm
01:04 AM 28.0°F-2.2°C 21.7°F-5.7°C 77% 15.0 mph NW24.1 kmh NW 15.0 mph24.1 kmh 30.37 in1028.4 mb 0.00 in0.0 mm 0.00 in0.0 mm 0.00 in0.0 mm
01:03 AM 28.0°F-2.2°C 21.7°F-5.7°C 77% 15.0 mph N24.1 kmh N 15.0 mph24.1 kmh 30.37 in1028.4 mb 0.00 in0.0 mm 0.00 in0.0 mm 0.00 in0.0 mm
01:02 AM 28.0°F-2.2°C 21.7°F-5.7°C 77% 5.0 mph N8.0 kmh N 15.0 mph24.1 kmh 30.37 in1028.4 mb 0.00 in0.0 mm 0.00 in0.0 mm 0.00 in0.0 mm
01:01 AM 28.0°F-2.2°C 21.7°F-5.7°C 77% 2.0 mph NNW3.2 kmh NNW 15.0 mph24.1 kmh 30.37 in1028.4 mb 0.00 in0.0 mm 0.00 in0.0 mm 0.00 in0.0 mm
01:00 AM 28.0°F-2.2°C 21.7°F-5.7°C 77% 8.0 mph N12.9 kmh N 15.0 mph24.1 kmh 30.37 in1028.4 mb 0.00 in0.0 mm 0.00 in0.0 mm 0.00 in0.0 mm
12:59 AM 28.1°F-2.2°C 21.8°F-5.7°C 77% 2.0 mph N3.2 kmh N 18.0 mph29.0 kmh 30.36 in1028.1 mb 0.00 in0.0 mm 0.00 in0.0 mm 0.00 in0.0 mm
12:58 AM 28.1°F-2.2°C 22.1°F-5.5°C 78% 6.0 mph NW9.7 kmh NW 18.0 mph29.0 kmh 30.36 in1028.1 mb 0.00 in0.0 mm 0.00 in0.0 mm 0.00 in0.0 mm
12:57 AM 28.1°F-2.2°C 22.1°F-5.5°C 78% 6.0 mph N9.7 kmh N 18.0 mph29.0 kmh 30.36 in1028.1 mb 0.00 in0.0 mm 0.00 in0.0 mm 0.00 in0.0 mm
12:56 AM 28.1°F-2.2°C 22.1°F-5.5°C 78% 5.0 mph NW8.0 kmh NW 18.0 mph29.0 kmh 30.36 in1028.1 mb 0.00 in0.0 mm 0.00 in0.0 mm 0.00 in0.0 mm
12:55 AM 28.1°F-2.2°C 22.1°F-5.5°C 78% 4.0 mph W6.4 kmh W 18.0 mph29.0 kmh 30.36 in1028.1 mb 0.00 in0.0 mm 0.00 in0.0 mm 0.00 in0.0 mm
12:54 AM 28.1°F-2.2°C 22.1°F-5.5°C 78% 2.0 mph N3.2 kmh N 18.0 mph29.0 kmh 30.36 in1028.1 mb 0.00 in0.0 mm 0.00 in0.0 mm 0.00 in0.0 mm
12:53 AM 28.1°F-2.2°C 22.1°F-5.5°C 78% 5.0 mph NW8.0 kmh NW 18.0 mph29.0 kmh 30.36 in1028.1 mb 0.00 in0.0 mm 0.00 in0.0 mm 0.00 in0.0 mm
12:52 AM 28.1°F-2.2°C 22.1°F-5.5°C 78% 3.0 mph NW4.8 kmh NW 18.0 mph29.0 kmh 30.36 in1028.1 mb 0.00 in0.0 mm 0.00 in0.0 mm 0.00 in0.0 mm
12:51 AM 28.1°F-2.2°C 22.1°F-5.5°C 78% 3.0 mph NNW4.8 kmh NNW 18.0 mph29.0 kmh 30.36 in1028.1 mb 0.00 in0.0 mm 0.00 in0.0 mm 0.00 in0.0 mm
12:50 AM 28.1°F-2.2°C 22.1°F-5.5°C 78% 13.0 mph NNW20.9 kmh NNW 18.0 mph29.0 kmh 30.36 in1028.1 mb 0.00 in0.0 mm 0.00 in0.0 mm 0.00 in0.0 mm
12:49 AM 28.1°F-2.2°C 22.1°F-5.5°C 78% 15.0 mph N24.1 kmh N 15.0 mph24.1 kmh 30.36 in1028.1 mb 0.00 in0.0 mm 0.00 in0.0 mm 0.00 in0.0 mm
12:48 AM 28.1°F-2.2°C 22.1°F-5.5°C 78% 3.0 mph NNW4.8 kmh NNW 12.0 mph19.3 kmh 30.36 in1028.1 mb 0.00 in0.0 mm 0.00 in0.0 mm 0.00 in0.0 mm
12:47 AM 28.1°F-2.2°C 22.1°F-5.5°C 78% 6.0 mph NNW9.7 kmh NNW 12.0 mph19.3 kmh 30.36 in1028.1 mb 0.00 in0.0 mm 0.00 in0.0 mm 0.00 in0.0 mm
12:46 AM 28.1°F-2.2°C 22.1°F-5.5°C 78% 4.0 mph NE6.4 kmh NE 12.0 mph19.3 kmh 30.36 in1028.1 mb 0.00 in0.0 mm 0.00 in0.0 mm 0.00 in0.0 mm
12:45 AM 28.1°F-2.2°C 22.1°F-5.5°C 78% 6.0 mph NNW9.7 kmh NNW 12.0 mph19.3 kmh 30.36 in1028.1 mb 0.00 in0.0 mm 0.00 in0.0 mm 0.00 in0.0 mm
12:44 AM 28.1°F-2.2°C 22.1°F-5.5°C 78% 7.0 mph NW11.3 kmh NW 14.0 mph22.5 kmh 30.36 in1028.1 mb 0.00 in0.0 mm 0.00 in0.0 mm 0.00 in0.0 mm
12:43 AM 28.1°F-2.2°C 22.1°F-5.5°C 78% 3.0 mph W4.8 kmh W 14.0 mph22.5 kmh 30.36 in1028.1 mb 0.00 in0.0 mm 0.00 in0.0 mm 0.00 in0.0 mm
12:42 AM 28.1°F-2.2°C 22.1°F-5.5°C 78% 5.0 mph N8.0 kmh N 14.0 mph22.5 kmh 30.36 in1028.1 mb 0.00 in0.0 mm 0.00 in0.0 mm 0.00 in0.0 mm
12:41 AM 28.1°F-2.2°C 22.1°F-5.5°C 78% 8.0 mph NNE12.9 kmh NNE 14.0 mph22.5 kmh 30.36 in1028.1 mb 0.00 in0.0 mm 0.00 in0.0 mm 0.00 in0.0 mm
12:40 AM 28.1°F-2.2°C 22.1°F-5.5°C 78% 5.0 mph WNW8.0 kmh WNW 14.0 mph22.5 kmh 30.36 in1028.1 mb 0.00 in0.0 mm 0.00 in0.0 mm 0.00 in0.0 mm
12:39 AM 28.1°F-2.2°C 22.4°F-5.3°C 79% 3.0 mph N4.8 kmh N 14.0 mph22.5 kmh 30.36 in1028.1 mb 0.00 in0.0 mm 0.00 in0.0 mm 0.00 in0.0 mm
12:38 AM 28.1°F-2.2°C 22.4°F-5.3°C 79% 8.0 mph NNW12.9 kmh NNW 14.0 mph22.5 kmh 30.36 in1028.1 mb 0.00 in0.0 mm 0.00 in0.0 mm 0.00 in0.0 mm
12:37 AM 28.1°F-2.2°C 22.4°F-5.3°C 79% 3.0 mph NW4.8 kmh NW 14.0 mph22.5 kmh 30.36 in1028.1 mb 0.00 in0.0 mm 0.00 in0.0 mm 0.00 in0.0 mm
12:36 AM 28.1°F-2.2°C 22.4°F-5.3°C 79% 3.0 mph N4.8 kmh N 14.0 mph22.5 kmh 30.36 in1028.1 mb 0.00 in0.0 mm 0.00 in0.0 mm 0.00 in0.0 mm
12:35 AM 28.2°F-2.1°C 22.5°F-5.3°C 79% 8.0 mph N12.9 kmh N 14.0 mph22.5 kmh 30.36 in1028.1 mb 0.00 in0.0 mm 0.00 in0.0 mm 0.00 in0.0 mm
12:34 AM 28.2°F-2.1°C 22.5°F-5.3°C 79% 3.0 mph N4.8 kmh N 13.0 mph20.9 kmh 30.36 in1028.1 mb 0.00 in0.0 mm 0.00 in0.0 mm 0.00 in0.0 mm
12:33 AM 28.2°F-2.1°C 22.5°F-5.3°C 79% 6.0 mph N9.7 kmh N 13.0 mph20.9 kmh 30.36 in1028.1 mb 0.00 in0.0 mm 0.00 in0.0 mm 0.00 in0.0 mm
12:32 AM 28.3°F-2.1°C 22.6°F-5.2°C 79% 6.0 mph N9.7 kmh N 13.0 mph20.9 kmh 30.36 in1028.1 mb 0.00 in0.0 mm 0.00 in0.0 mm 0.00 in0.0 mm
12:31 AM 28.3°F-2.1°C 22.6°F-5.2°C 79% 10.0 mph N16.1 kmh N 13.0 mph20.9 kmh 30.36 in1028.1 mb 0.00 in0.0 mm 0.00 in0.0 mm 0.00 in0.0 mm
12:30 AM 28.3°F-2.1°C 22.6°F-5.2°C 79% 6.0 mph N9.7 kmh N 13.0 mph20.9 kmh 30.36 in1028.1 mb 0.00 in0.0 mm 0.00 in0.0 mm 0.00 in0.0 mm
12:29 AM 28.3°F-2.1°C 22.6°F-5.2°C 79% 2.0 mph NW3.2 kmh NW 13.0 mph20.9 kmh 30.36 in1028.1 mb 0.00 in0.0 mm 0.00 in0.0 mm 0.00 in0.0 mm
12:28 AM 28.3°F-2.1°C 22.6°F-5.2°C 79% 6.0 mph N9.7 kmh N 13.0 mph20.9 kmh 30.36 in1028.1 mb 0.00 in0.0 mm 0.00 in0.0 mm 0.00 in0.0 mm
12:27 AM 28.4°F-2.0°C 22.7°F-5.2°C 79% 2.0 mph E3.2 kmh E 13.0 mph20.9 kmh 30.36 in1028.1 mb 0.00 in0.0 mm 0.00 in0.0 mm 0.00 in0.0 mm
12:26 AM 28.4°F-2.0°C 22.7°F-5.2°C 79% 3.0 mph NNW4.8 kmh NNW 13.0 mph20.9 kmh 30.36 in1028.1 mb 0.00 in0.0 mm 0.00 in0.0 mm 0.00 in0.0 mm
12:25 AM 28.4°F-2.0°C 22.7°F-5.2°C 79% 6.0 mph NW9.7 kmh NW 13.0 mph20.9 kmh 30.36 in1028.1 mb 0.00 in0.0 mm 0.00 in0.0 mm 0.00 in0.0 mm
12:24 AM 28.4°F-2.0°C 22.7°F-5.2°C 79% 3.0 mph NNW4.8 kmh NNW 12.0 mph19.3 kmh 30.36 in1028.1 mb 0.00 in0.0 mm 0.00 in0.0 mm 0.00 in0.0 mm
12:23 AM 28.4°F-2.0°C 22.7°F-5.2°C 79% 5.0 mph NW8.0 kmh NW 13.0 mph20.9 kmh 30.36 in1028.1 mb 0.00 in0.0 mm 0.00 in0.0 mm 0.00 in0.0 mm
12:22 AM 28.4°F-2.0°C 22.7°F-5.2°C 79% 5.0 mph N8.0 kmh N 13.0 mph20.9 kmh 30.36 in1028.1 mb 0.00 in0.0 mm 0.00 in0.0 mm 0.00 in0.0 mm
12:21 AM 28.4°F-2.0°C 22.7°F-5.2°C 79% 11.0 mph N17.7 kmh N 13.0 mph20.9 kmh 30.36 in1028.1 mb 0.00 in0.0 mm 0.00 in0.0 mm 0.00 in0.0 mm
12:20 AM 28.4°F-2.0°C 22.7°F-5.2°C 79% 2.0 mph N3.2 kmh N 13.0 mph20.9 kmh 30.36 in1028.1 mb 0.00 in0.0 mm 0.00 in0.0 mm 0.00 in0.0 mm
12:19 AM 28.4°F-2.0°C 22.7°F-5.2°C 79% 4.0 mph N6.4 kmh N 13.0 mph20.9 kmh 30.36 in1028.1 mb 0.00 in0.0 mm 0.00 in0.0 mm 0.00 in0.0 mm
12:18 AM 28.4°F-2.0°C 22.7°F-5.2°C 79% 5.0 mph N8.0 kmh N 17.0 mph27.4 kmh 30.36 in1028.1 mb 0.00 in0.0 mm 0.00 in0.0 mm 0.00 in0.0 mm
12:17 AM 28.4°F-2.0°C 22.7°F-5.2°C 79% 4.0 mph NW6.4 kmh NW 17.0 mph27.4 kmh 30.36 in1028.1 mb 0.00 in0.0 mm 0.00 in0.0 mm 0.00 in0.0 mm
12:16 AM 28.4°F-2.0°C 22.7°F-5.2°C 79% 4.0 mph N6.4 kmh N 17.0 mph27.4 kmh 30.36 in1028.1 mb 0.00 in0.0 mm 0.00 in0.0 mm 0.00 in0.0 mm
12:15 AM 28.4°F-2.0°C 22.7°F-5.2°C 79% 4.0 mph NNW6.4 kmh NNW 17.0 mph27.4 kmh 30.36 in1028.1 mb 0.00 in0.0 mm 0.00 in0.0 mm 0.00 in0.0 mm
12:14 AM 28.4°F-2.0°C 22.4°F-5.3°C 78% 8.0 mph N12.9 kmh N 17.0 mph27.4 kmh 30.36 in1028.1 mb 0.00 in0.0 mm 0.00 in0.0 mm 0.00 in0.0 mm
12:13 AM 28.4°F-2.0°C 22.4°F-5.3°C 78% 9.0 mph NW14.5 kmh NW 17.0 mph27.4 kmh 30.36 in1028.1 mb 0.00 in0.0 mm 0.00 in0.0 mm 0.00 in0.0 mm
12:12 AM 28.4°F-2.0°C 22.4°F-5.3°C 78% 5.0 mph NW8.0 kmh NW 17.0 mph27.4 kmh 30.36 in1028.1 mb 0.00 in0.0 mm 0.00 in0.0 mm 0.00 in0.0 mm
12:11 AM 28.4°F-2.0°C 22.4°F-5.3°C 78% 3.0 mph N4.8 kmh N 17.0 mph27.4 kmh 30.36 in1028.1 mb 0.00 in0.0 mm 0.00 in0.0 mm 0.00 in0.0 mm
12:10 AM 28.5°F-1.9°C 22.5°F-5.3°C 78% 9.0 mph NW14.5 kmh NW 17.0 mph27.4 kmh 30.36 in1028.1 mb 0.00 in0.0 mm 0.00 in0.0 mm 0.00 in0.0 mm
12:09 AM 28.5°F-1.9°C 22.5°F-5.3°C 78% 11.0 mph NW17.7 kmh NW 17.0 mph27.4 kmh 30.36 in1028.1 mb 0.00 in0.0 mm 0.00 in0.0 mm 0.00 in0.0 mm
12:08 AM 28.5°F-1.9°C 22.5°F-5.3°C 78% 3.0 mph NNE4.8 kmh NNE 14.0 mph22.5 kmh 30.36 in1028.1 mb 0.00 in0.0 mm 0.00 in0.0 mm 0.00 in0.0 mm
12:07 AM 28.5°F-1.9°C 22.5°F-5.3°C 78% 4.0 mph N6.4 kmh N 14.0 mph22.5 kmh 30.36 in1028.1 mb 0.00 in0.0 mm 0.00 in0.0 mm 0.00 in0.0 mm
12:06 AM 28.5°F-1.9°C 22.5°F-5.3°C 78% 8.0 mph N12.9 kmh N 14.0 mph22.5 kmh 30.36 in1028.1 mb 0.00 in0.0 mm 0.00 in0.0 mm 0.00 in0.0 mm
12:05 AM 28.5°F-1.9°C 22.5°F-5.3°C 78% 3.0 mph WNW4.8 kmh WNW 14.0 mph22.5 kmh 30.36 in1028.1 mb 0.00 in0.0 mm 0.00 in0.0 mm 0.00 in0.0 mm
12:04 AM 28.5°F-1.9°C 22.5°F-5.3°C 78% 9.0 mph NW14.5 kmh NW 14.0 mph22.5 kmh 30.36 in1028.1 mb 0.00 in0.0 mm 0.00 in0.0 mm 0.00 in0.0 mm
12:03 AM 28.5°F-1.9°C 22.5°F-5.3°C 78% 5.0 mph N8.0 kmh N 14.0 mph22.5 kmh 30.36 in1028.1 mb 0.00 in0.0 mm 0.00 in0.0 mm 0.00 in0.0 mm
12:02 AM 28.5°F-1.9°C 22.5°F-5.3°C 78% 3.0 mph N4.8 kmh N 14.0 mph22.5 kmh 30.36 in1028.1 mb 0.00 in0.0 mm 0.00 in0.0 mm 0.00 in0.0 mm
12:01 AM 28.5°F-1.9°C 22.5°F-5.3°C 78% 10.0 mph NE16.1 kmh NE 14.0 mph22.5 kmh 30.36 in1028.1 mb 0.00 in0.0 mm 0.00 in0.0 mm 0.00 in0.0 mm
12:00 AM 28.5°F-1.9°C 22.5°F-5.3°C 78% 9.0 mph NW14.5 kmh NW 14.0 mph22.5 kmh 30.36 in1028.1 mb 0.00 in0.0 mm 0.00 in0.0 mm 0.00 in0.0 mm